Historyczne dane pomiarowe

Dodano dane terminowe – wersja testowa.

Dane z okresu 1951-2019

Wersja bazy: 1.34 [2019-03-16, lista zmian], aktualizacja planowana na 2019-04-15

Dane meteo z obszaru Polski uzyskane na podstawie danych udostępnionych przez Instytut Meteorologii i Gospodarki Wodnej – Państwowy Instytut Badawczy.

 

Wybierz Datę:    

       

TemperaturaWilgotnośćWiatrCiśnienieOpadyŚniegCzas trwania zjawisk
 Stacja t tx tn tng RH VA  wxwx mslp ppp RRR   cm mm wxwxwxwxwxwxwx
1961-08-14 14.2 19.2 10.2- 84.8- 7.7 1.0---- 1.0------------
1961-08-13 15.5 18.1 14.1- 74.8- 3.7 4.3---- 0.0------------
1961-08-12 16.3 19.3 14.3- 82.5- 5.0 1.3---- 0.0------------
1961-08-11 16.4 18.6 13.5- 91.5- 6.0 0.7---- 0.0------------
1961-08-10 16.7 23.0 13.6- 89.5- 6.7 2.0---- 2.8------------
1961-08-09 16.6 20.4 14.1- 81.5- 4.0 1.3---- 0.0------------
1961-08-08 16.0 18.7 13.6- 83.0- 6.7 1.3---- 0.7------------
1961-08-07 15.3 18.8 13.6- 86.3- 5.0 1.7---- 1.6------------
1961-08-06 17.3 23.3 12.8- 88.8- 5.3 1.7---- 0.0------------
1961-08-05 15.3 18.3 13.6- 83.5- 3.3 3.0---- 2.6------------
1961-08-04 14.6 17.1 9.7- 89.0- 8.0 5.0---- 4.1------------
1961-08-03 14.2 17.6 13.0- 92.0- 5.7 1.0---- 0.4------------
1961-08-02 16.0 19.8 12.7- 89.3- 7.7 3.7---- 2.7------------
1961-08-01 15.3 16.7 13.8- 91.8- 7.7 3.7---- 5.7------------
1961-07-31 14.8 17.1 14.3- 92.3- 7.3 3.0---- 2.4------------
1961-07-30 15.9 18.7 13.2- 88.3- 6.7 2.0---- 0.0------------
1961-07-29 14.4 17.7 11.0- 85.8- 7.3 3.7---- 0.8------------
1961-07-28 12.9 15.1 11.8- 87.8- 7.3 2.3---- 0.4------------
1961-07-27 15.2 19.6 14.4- 89.8- 7.3 6.3---- 3.5------------
1961-07-26 16.3 20.1 13.5- 90.5- 8.0 5.3---- 9.6------------
1961-07-25 15.3 18.1 14.3- 77.8- 7.3 5.7---- 2.1------------
1961-07-24 15.9 17.9 13.3- 78.8- 5.7 6.0---- 0.0------------
1961-07-23 15.4 18.2 13.9- 83.3- 7.7 4.7---- 2.2------------
1961-07-22 15.7 18.1 12.8- 85.5- 7.7 3.3---- 0.0------------
1961-07-21 15.6 17.2 13.2- 92.0- 7.7 2.3---- 16.1------------
1961-07-20 15.9 19.4 11.8- 86.5- 7.3 2.3---- 0.9------------
1961-07-19 15.1 18.5 12.7- 87.8- 4.7 2.3---- 7.2------------
1961-07-18 15.7 19.0 12.4- 82.3- 5.7 1.0---- 0.6------------
1961-07-17 15.7 19.0 12.6- 83.8- 5.0 1.0---- 0.0------------
1961-07-16 15.1 17.7 10.0- 87.8- 8.0 1.7---- 2.2------------
1961-07-15 14.0 20.2 11.3- 88.0- 4.3 1.0---- 5.2------------
1961-07-14 14.8 19.8 13.6- 88.3- 8.0 4.7---- 0.0------------
1961-07-13 20.7 31.7 13.1- 83.5- 6.3 4.3---- 35.0------------
1961-07-12 16.3 19.4 13.5- 90.5- 5.3 2.0---- 0.0------------
1961-07-11 14.5 17.9 11.7- 79.5- 3.7 4.3---- 3.2------------
1961-07-10 14.8 16.9 11.6- 71.5- 5.3 4.0---- 0.0------------
1961-07-09 14.7 16.1 13.9- 87.5- 7.3 1.7---- 11.1------------
1961-07-08 15.4 18.2 9.4- 83.3- 7.0 2.3---- 3.8------------
1961-07-07 14.3 16.7 10.8- 82.0- 5.0 4.0---- 0.3------------
1961-07-06 13.6 15.7 7.4- 76.0- 7.3 3.7---- 4.8------------
1961-07-05 12.2 16.1 11.1- 82.0- 6.0 12.0---- 3.7------------
1961-07-04 16.4 20.7 11.5- 77.5- 7.7 3.0---- 2.5------------
1961-07-03 21.4 32.6 12.9- 69.5- 2.7 1.7---- 0.0------------
1961-07-02 20.7 27.4 7.2- 70.3- 0.0 1.3---- 0.0------------
1961-07-01 15.8 19.7 8.3- 83.3- 0.7 2.0---- 0.0------------
1961-06-30 15.8 19.2 13.9- 79.0- 0.0 3.0---- 0.0------------
1961-06-29 16.1 17.9 14.1- 75.8- 3.3 5.0---- 0.8------------
1961-06-28 14.9 18.0 13.4- 69.8- 5.0 7.0---- 0.4------------
1961-06-27 21.6 29.7 15.5- 72.5- 5.3 3.3---- 0.0------------
1961-06-26 17.6 21.0 14.9- 76.8- 1.7 3.0---- 0.0------------
1961-06-25 19.9 24.8 15.4- 67.3- 2.7 5.7---- 0.0------------
1961-06-24 16.8 19.6 13.8- 67.0- 5.3 7.3---- 0.0------------
1961-06-23 16.3 18.9 10.4- 74.5- 5.0 3.3---- 0.0------------
1961-06-22 15.2 18.7 7.7- 69.0- 4.7 2.3---- 0.0------------
1961-06-21 13.8 17.1 10.4- 76.0- 4.7 2.7---- 0.0------------
1961-06-20 13.5 16.7 11.7- 67.3- 3.3 6.7---- 0.0------------
1961-06-19 15.0 17.6 12.8- 69.5- 4.7 7.0---- 0.0------------
1961-06-18 18.3 24.1 15.6- 80.5- 6.3 4.3---- 2.8------------
1961-06-17 16.3 18.6 13.5- 81.5- 3.7 3.7---- 0.0------------
1961-06-16 14.6 16.1 12.6- 84.5- 7.0 5.3---- 0.0------------
274.7 ms

 

Źródłem pochodzenia danych jest Instytut Meteorologii i Gospodarki Wodnej – Państwowy Instytut Badawczy. Dane Instytutu Meteorologii i Gospodarki Wodnej – Państwowego Instytutu Badawczego zostały przetworzone.

Dane źródłowe można odnaleźć na stronie https://dane.imgw.pl